createdAt,value
2017-09-28T00:01:25.674Z,15.67
2017-09-28T00:03:53.302Z,8.13
2017-09-28T00:06:20.948Z,10.43
2017-09-28T00:08:48.642Z,8.77
2017-09-28T00:11:16.274Z,10.83
2017-09-28T00:16:25.081Z,9.13
2017-09-28T00:18:52.722Z,7.00
2017-09-28T00:21:20.343Z,8.70
2017-09-28T00:23:48.054Z,10.23
2017-09-28T00:26:15.670Z,8.47
2017-09-28T00:28:43.306Z,8.13
2017-09-28T00:31:11.011Z,11.07
2017-09-28T00:33:38.650Z,11.00
2017-09-28T00:36:06.291Z,9.60
2017-09-28T00:38:33.994Z,9.57
2017-09-28T00:41:01.628Z,8.33
2017-09-28T00:43:29.263Z,9.03
2017-09-28T00:45:56.953Z,8.07
2017-09-28T00:48:24.591Z,6.90
2017-09-28T00:50:52.233Z,7.33
2017-09-28T00:53:19.942Z,9.03
2017-09-28T00:55:47.586Z,10.10
2017-09-28T00:58:15.229Z,10.23
2017-09-28T01:00:42.922Z,13.63
2017-09-28T01:03:10.560Z,9.93
2017-09-28T01:05:38.201Z,11.37
2017-09-28T01:08:05.918Z,11.10
2017-09-28T01:10:33.562Z,11.33
2017-09-28T01:13:01.203Z,11.30
2017-09-28T01:15:28.905Z,13.70
2017-09-28T01:17:56.529Z,7.47
2017-09-28T01:20:24.167Z,8.37
2017-09-28T01:22:51.868Z,10.03
2017-09-28T01:25:19.503Z,13.77
2017-09-28T01:27:47.134Z,9.80
2017-09-28T01:30:14.849Z,7.10
2017-09-28T01:32:42.490Z,7.70
2017-09-28T01:35:10.123Z,7.93
2017-09-28T01:40:18.930Z,10.15
2017-09-28T01:42:46.626Z,8.50
2017-09-28T01:45:14.254Z,11.23
2017-09-28T01:47:41.896Z,11.13
2017-09-28T01:50:09.599Z,9.80
2017-09-28T01:52:37.227Z,8.83
2017-09-28T01:55:04.867Z,12.20
2017-09-28T01:57:32.566Z,10.10
2017-09-28T02:00:00.210Z,10.37
2017-09-28T02:02:27.844Z,10.10
2017-09-28T02:04:55.570Z,9.03
2017-09-28T02:07:23.205Z,10.70
2017-09-28T02:09:51.304Z,13.30
2017-09-28T02:12:19.707Z,8.83
2017-09-28T02:14:47.350Z,9.97
2017-09-28T02:17:14.986Z,9.57
2017-09-28T02:19:42.702Z,8.93
2017-09-28T02:22:10.335Z,7.47
2017-09-28T02:24:37.967Z,7.73
2017-09-28T02:27:06.610Z,7.63
2017-09-28T02:29:34.249Z,7.50
2017-09-28T02:32:01.878Z,8.23
2017-09-28T02:34:29.589Z,7.80
2017-09-28T02:36:57.230Z,11.43
2017-09-28T02:39:24.862Z,8.80
2017-09-28T02:41:52.561Z,5.73
2017-09-28T02:44:20.199Z,7.73
2017-09-28T02:46:47.842Z,11.53
2017-09-28T02:49:15.542Z,9.43
2017-09-28T02:51:43.183Z,8.53
2017-09-28T02:54:10.825Z,11.27
2017-09-28T02:56:38.541Z,8.60
2017-09-28T02:59:06.175Z,8.97
2017-09-28T03:01:33.807Z,9.30
2017-09-28T03:06:40.607Z,10.13
2017-09-28T03:09:09.198Z,9.23
2017-09-28T03:11:36.835Z,11.17
2017-09-28T03:14:04.469Z,11.30
2017-09-28T03:16:32.166Z,8.73
2017-09-28T03:18:59.810Z,10.83
2017-09-28T03:21:27.474Z,10.47
2017-09-28T03:23:55.175Z,11.63
2017-09-28T03:26:22.815Z,8.73
2017-09-28T03:28:50.446Z,9.93
2017-09-28T03:31:18.157Z,9.03
2017-09-28T03:33:45.790Z,8.57
2017-09-28T03:36:13.425Z,6.87
2017-09-28T03:38:41.119Z,9.23
2017-09-28T03:41:08.751Z,9.00
2017-09-28T03:43:36.386Z,7.90
2017-09-28T03:46:04.090Z,8.57
2017-09-28T03:48:31.728Z,13.37
2017-09-28T03:50:59.373Z,11.30
2017-09-28T03:53:27.075Z,8.37
2017-09-28T03:55:54.709Z,8.03
2017-09-28T03:58:22.343Z,7.77
2017-09-28T04:00:50.042Z,8.40
2017-09-28T04:03:17.693Z,7.03
2017-09-28T04:05:45.333Z,10.23
2017-09-28T04:08:13.048Z,7.87
2017-09-28T04:10:41.410Z,7.00
2017-09-28T04:13:09.037Z,9.73
2017-09-28T04:15:36.744Z,9.13
2017-09-28T04:18:05.314Z,12.13
2017-09-28T04:20:32.947Z,7.77
2017-09-28T04:23:00.668Z,7.77
2017-09-28T04:25:28.838Z,9.50
2017-09-28T04:27:56.479Z,10.97
2017-09-28T04:30:24.175Z,9.83
2017-09-28T04:35:30.974Z,9.55
2017-09-28T04:37:58.601Z,7.60
2017-09-28T04:40:26.241Z,12.50
2017-09-28T04:42:53.939Z,11.20
2017-09-28T04:45:21.571Z,8.60
2017-09-28T04:47:49.204Z,10.60
2017-09-28T04:50:16.914Z,7.47
2017-09-28T04:52:44.555Z,13.60
2017-09-28T04:55:12.189Z,9.40
2017-09-28T04:57:40.855Z,14.80
2017-09-28T05:00:08.486Z,10.90
2017-09-28T05:02:36.119Z,8.43
2017-09-28T05:05:03.834Z,8.33
2017-09-28T05:07:31.465Z,9.33
2017-09-28T05:09:59.104Z,9.27
2017-09-28T05:12:26.799Z,11.20
2017-09-28T05:14:54.436Z,11.37
2017-09-28T05:17:22.066Z,10.60
2017-09-28T05:19:49.782Z,10.00
2017-09-28T05:22:17.417Z,10.80
2017-09-28T05:24:45.059Z,8.33
2017-09-28T05:27:12.746Z,8.43
2017-09-28T05:29:40.374Z,8.20
2017-09-28T05:32:08.019Z,12.47
2017-09-28T05:34:35.724Z,8.77
2017-09-28T05:37:03.354Z,9.00
2017-09-28T05:39:30.994Z,10.37
2017-09-28T05:41:58.711Z,16.00
2017-09-28T05:44:26.373Z,11.00
2017-09-28T05:46:54.023Z,11.07
2017-09-28T05:49:21.710Z,10.27
2017-09-28T05:51:49.353Z,11.10
2017-09-28T05:54:16.990Z,12.00
2017-09-28T05:56:44.717Z,19.07
2017-09-28T05:59:12.455Z,16.83
2017-09-28T06:04:20.091Z,13.82
2017-09-28T06:06:47.732Z,11.67
2017-09-28T06:09:15.365Z,16.47
2017-09-28T06:11:43.077Z,13.53
2017-09-28T06:14:10.719Z,16.43
2017-09-28T06:16:39.165Z,15.23
2017-09-28T06:19:06.858Z,10.80
2017-09-28T06:21:34.494Z,14.00
2017-09-28T06:24:02.130Z,9.47
2017-09-28T06:26:29.849Z,14.37
2017-09-28T06:28:57.477Z,16.10
2017-09-28T06:31:25.142Z,11.40
2017-09-28T06:33:52.839Z,10.67
2017-09-28T06:36:21.295Z,10.23
2017-09-28T06:38:48.925Z,10.97
2017-09-28T06:41:17.453Z,11.27
2017-09-28T06:43:45.091Z,13.37
2017-09-28T06:46:12.731Z,10.97
2017-09-28T06:48:40.454Z,9.30
2017-09-28T06:51:08.083Z,12.63
2017-09-28T06:53:35.725Z,14.50
2017-09-28T06:56:03.439Z,14.87
2017-09-28T06:58:31.076Z,11.37
2017-09-28T07:00:58.713Z,12.10
2017-09-28T07:03:26.457Z,8.17
2017-09-28T07:05:54.095Z,12.23
2017-09-28T07:08:22.181Z,10.27
2017-09-28T07:10:49.904Z,13.13
2017-09-28T07:13:18.386Z,10.57
2017-09-28T07:15:46.014Z,10.23
2017-09-28T07:18:13.716Z,12.57
2017-09-28T07:20:41.350Z,11.70
2017-09-28T07:23:08.993Z,10.80
2017-09-28T07:25:36.755Z,13.07
2017-09-28T07:28:04.329Z,8.70
2017-09-28T07:33:11.170Z,9.93
2017-09-28T07:35:39.562Z,13.87
2017-09-28T07:38:07.207Z,6.97
2017-09-28T07:40:34.906Z,8.93
2017-09-28T07:43:02.543Z,9.77
2017-09-28T07:45:30.219Z,10.13
2017-09-28T07:47:57.923Z,8.83
2017-09-28T07:50:25.554Z,8.73
2017-09-28T07:52:53.199Z,8.00
2017-09-28T07:55:21.710Z,11.00
2017-09-28T07:57:50.190Z,9.20
2017-09-28T08:00:17.819Z,7.43
2017-09-28T08:02:45.537Z,8.23
2017-09-28T08:05:13.166Z,9.17
2017-09-28T08:07:40.807Z,6.10
2017-09-28T08:10:08.520Z,8.40
2017-09-28T08:12:36.156Z,8.80
2017-09-28T08:15:03.787Z,8.87
2017-09-28T08:17:31.518Z,7.57
2017-09-28T08:19:59.153Z,7.90
2017-09-28T08:22:26.788Z,7.50
2017-09-28T08:24:54.489Z,7.87
2017-09-28T08:27:22.127Z,5.30
2017-09-28T08:32:32.690Z,8.65
2017-09-28T08:35:00.324Z,7.40
2017-09-28T08:37:27.963Z,9.77
2017-09-28T08:39:55.669Z,6.03
2017-09-28T08:42:23.298Z,5.03
2017-09-28T08:44:50.934Z,9.70
2017-09-28T08:47:18.639Z,6.23
2017-09-28T08:49:46.274Z,9.17
2017-09-28T08:52:13.908Z,9.67
2017-09-28T08:54:41.603Z,7.67
2017-09-28T08:57:09.238Z,7.13
2017-09-28T08:59:36.888Z,5.53
2017-09-28T09:02:04.635Z,4.07
2017-09-28T09:04:32.287Z,5.30
2017-09-28T09:06:59.929Z,4.67
2017-09-28T09:09:27.625Z,7.10
2017-09-28T09:11:55.275Z,7.83
2017-09-28T09:14:23.875Z,9.77
2017-09-28T09:16:51.599Z,4.90
2017-09-28T09:19:19.230Z,7.23
2017-09-28T09:21:46.865Z,8.80
2017-09-28T09:24:14.582Z,7.23
2017-09-28T09:26:42.218Z,3.77
2017-09-28T09:29:09.870Z,4.00
2017-09-28T09:31:37.569Z,4.50
2017-09-28T09:34:05.208Z,5.27
2017-09-28T09:36:32.838Z,4.47
2017-09-28T09:39:00.560Z,4.40
2017-09-28T09:41:28.198Z,9.57
2017-09-28T09:43:55.830Z,7.50
2017-09-28T09:46:23.531Z,7.60
2017-09-28T09:48:51.973Z,7.60
2017-09-28T09:51:19.619Z,4.80
2017-09-28T09:53:47.335Z,5.93
2017-09-28T09:58:54.378Z,4.90
2017-09-28T10:01:22.044Z,5.87
2017-09-28T10:03:49.677Z,6.23
2017-09-28T10:06:17.528Z,3.23
2017-09-28T10:16:45.842Z,3.12
2017-09-28T10:19:13.478Z,5.00
2017-09-28T10:21:41.123Z,5.37
2017-09-28T10:24:08.818Z,3.80
2017-09-28T10:26:36.458Z,3.80
2017-09-28T10:29:04.100Z,4.47
2017-09-28T10:31:31.793Z,4.07
2017-09-28T10:33:59.430Z,4.70
2017-09-28T10:36:28.091Z,3.70
2017-09-28T10:38:55.808Z,3.53
2017-09-28T10:41:23.447Z,4.97
2017-09-28T10:43:51.081Z,3.83
2017-09-28T10:46:18.774Z,4.93
2017-09-28T10:48:46.402Z,3.60
2017-09-28T10:51:14.039Z,9.73
2017-09-28T10:53:41.744Z,2.97
2017-09-28T10:56:09.373Z,3.47
2017-09-28T10:58:37.015Z,3.23
2017-09-28T11:01:04.709Z,4.53
2017-09-28T11:03:32.342Z,3.80
2017-09-28T11:05:59.986Z,4.70
2017-09-28T11:08:27.705Z,3.67
2017-09-28T11:10:55.347Z,3.13
2017-09-28T11:13:22.982Z,3.17
2017-09-28T11:15:50.682Z,2.83
2017-09-28T11:18:18.314Z,2.77
2017-09-28T11:20:45.954Z,5.33
2017-09-28T11:23:13.706Z,4.07
2017-09-28T11:25:41.338Z,3.57
2017-09-28T11:28:08.976Z,4.23
2017-09-28T11:30:36.688Z,2.90
2017-09-28T11:33:04.319Z,3.57
2017-09-28T11:35:31.954Z,4.80
2017-09-28T11:37:59.669Z,3.97
2017-09-28T11:40:27.303Z,3.30
2017-09-28T11:42:54.931Z,3.77
2017-09-28T11:48:01.842Z,3.65
2017-09-28T11:50:29.500Z,3.97
2017-09-28T11:52:57.130Z,5.97
2017-09-28T11:55:24.767Z,7.63
2017-09-28T11:57:52.492Z,4.77
2017-09-28T12:00:20.127Z,3.30
2017-09-28T12:02:48.590Z,3.27
2017-09-28T12:05:16.315Z,3.27
2017-09-28T12:07:43.959Z,4.47
2017-09-28T12:10:11.594Z,3.27
2017-09-28T12:12:39.293Z,4.67
2017-09-28T12:15:07.747Z,3.30
2017-09-28T12:17:35.380Z,3.50
2017-09-28T12:20:03.102Z,3.20
2017-09-28T12:22:30.743Z,5.47
2017-09-28T12:24:58.399Z,5.23
2017-09-28T12:27:26.074Z,2.80
2017-09-28T12:29:53.705Z,3.57
2017-09-28T12:32:21.343Z,3.70
2017-09-28T12:34:49.061Z,3.40
2017-09-28T12:37:16.700Z,4.20
2017-09-28T12:39:44.331Z,4.37
2017-09-28T12:42:12.043Z,3.37
2017-09-28T12:44:39.704Z,3.00
2017-09-28T12:47:07.335Z,3.33
2017-09-28T12:49:35.049Z,3.83
2017-09-28T12:52:02.667Z,3.77
2017-09-28T12:54:30.303Z,8.87
2017-09-28T12:56:58.018Z,6.53
2017-09-28T12:59:25.671Z,7.07
2017-09-28T13:01:53.306Z,8.13
2017-09-28T13:04:20.994Z,8.40
2017-09-28T13:06:48.634Z,4.33
2017-09-28T13:09:16.277Z,4.90
2017-09-28T13:11:43.990Z,10.10
2017-09-28T13:16:50.790Z,6.97
2017-09-28T13:19:18.425Z,5.67
2017-09-28T13:21:46.059Z,7.00
2017-09-28T13:24:13.783Z,3.90
2017-09-28T13:26:41.419Z,8.73
2017-09-28T13:29:09.049Z,4.93
2017-09-28T13:31:36.741Z,6.93
2017-09-28T13:34:04.384Z,8.00
2017-09-28T13:36:32.022Z,8.03
2017-09-28T13:38:59.744Z,4.03
2017-09-28T13:41:27.352Z,6.63
2017-09-28T13:43:54.981Z,4.87
2017-09-28T13:46:22.702Z,9.23
2017-09-28T13:48:50.328Z,7.13
2017-09-28T13:51:18.787Z,7.70
2017-09-28T13:53:46.478Z,6.73
2017-09-28T13:56:15.053Z,6.87
2017-09-28T13:58:42.729Z,6.00
2017-09-28T14:01:10.425Z,4.17
2017-09-28T14:03:38.059Z,7.20
2017-09-28T14:06:05.704Z,5.23
2017-09-28T14:08:33.396Z,5.77
2017-09-28T14:11:01.035Z,5.87
2017-09-28T14:13:28.667Z,4.73
2017-09-28T14:15:56.363Z,6.10
2017-09-28T14:18:24.013Z,7.57
2017-09-28T14:20:51.647Z,8.07
2017-09-28T14:23:20.307Z,5.03
2017-09-28T14:25:47.939Z,4.10
2017-09-28T14:28:15.574Z,6.23
2017-09-28T14:30:44.265Z,6.23
2017-09-28T14:33:11.894Z,6.30
2017-09-28T14:35:39.553Z,6.57
2017-09-28T14:38:07.250Z,5.43
2017-09-28T14:40:34.882Z,4.30
2017-09-28T14:43:02.518Z,5.30
2017-09-28T14:48:09.329Z,5.85
2017-09-28T14:50:37.027Z,7.17
2017-09-28T14:53:04.663Z,4.80
2017-09-28T14:55:32.306Z,6.77
2017-09-28T14:58:00.021Z,8.37
2017-09-28T15:00:27.661Z,10.40
2017-09-28T15:02:55.298Z,5.47
2017-09-28T15:05:23.071Z,10.60
2017-09-28T15:07:50.712Z,5.63
2017-09-28T15:10:18.337Z,6.17
2017-09-28T15:12:46.046Z,7.83
2017-09-28T15:15:13.679Z,8.47
2017-09-28T15:17:41.311Z,7.27
2017-09-28T15:20:09.010Z,5.57
2017-09-28T15:22:36.648Z,7.40
2017-09-28T15:25:04.286Z,6.07
2017-09-28T15:27:31.977Z,5.57
2017-09-28T15:29:59.623Z,10.60
2017-09-28T15:32:27.275Z,10.93
2017-09-28T15:34:54.985Z,8.87
2017-09-28T15:37:23.345Z,5.63
2017-09-28T15:39:50.980Z,6.37
2017-09-28T15:42:19.463Z,9.10
2017-09-28T15:44:47.095Z,8.33
2017-09-28T15:47:14.795Z,7.47
2017-09-28T15:49:42.445Z,17.40
2017-09-28T15:52:10.138Z,10.07
2017-09-28T15:54:37.748Z,6.20
2017-09-28T15:57:06.414Z,7.00
2017-09-28T15:59:34.073Z,10.17
2017-09-28T16:02:01.724Z,9.10
2017-09-28T16:04:29.584Z,6.40
2017-09-28T16:06:57.235Z,9.10
2017-09-28T16:12:04.063Z,8.80
2017-09-28T16:14:31.727Z,6.37
2017-09-28T16:16:59.369Z,7.70
2017-09-28T16:19:28.048Z,8.17
2017-09-28T16:21:55.623Z,7.97
2017-09-28T16:24:24.120Z,8.23
2017-09-28T16:26:51.832Z,7.13
2017-09-28T16:29:19.492Z,7.87
2017-09-28T16:31:47.123Z,7.17
2017-09-28T16:34:14.833Z,11.73
2017-09-28T16:36:42.472Z,7.83
2017-09-28T16:39:10.529Z,7.73
2017-09-28T16:41:38.169Z,8.77
2017-09-28T16:44:05.809Z,8.63
2017-09-28T16:46:33.449Z,7.87
2017-09-28T16:49:01.156Z,8.90
2017-09-28T16:51:28.795Z,10.07
2017-09-28T16:53:56.476Z,8.13
2017-09-28T16:56:24.983Z,9.70
2017-09-28T16:58:52.618Z,5.90
2017-09-28T17:01:20.267Z,10.60
2017-09-28T17:03:47.996Z,8.67
2017-09-28T17:06:15.636Z,8.40
2017-09-28T17:08:43.269Z,8.40
2017-09-28T17:11:11.215Z,8.60
2017-09-28T17:13:38.780Z,8.40
2017-09-28T17:16:07.402Z,9.90
2017-09-28T17:18:35.103Z,10.07
2017-09-28T17:21:02.755Z,8.93
2017-09-28T17:23:30.422Z,9.47
2017-09-28T17:25:58.119Z,9.33
2017-09-28T17:28:25.771Z,11.97
2017-09-28T17:33:32.083Z,11.70
2017-09-28T17:35:59.726Z,10.67
2017-09-28T17:38:27.449Z,12.37
2017-09-28T17:40:55.154Z,12.83
2017-09-28T17:43:22.809Z,10.97
2017-09-28T17:45:50.466Z,11.83
2017-09-28T17:48:18.166Z,14.07
2017-09-28T17:50:46.445Z,10.90
2017-09-28T17:53:14.100Z,16.03
2017-09-28T17:55:41.832Z,12.10
2017-09-28T17:58:09.473Z,12.70
2017-09-28T18:00:37.938Z,9.37
2017-09-28T18:03:05.649Z,13.50
2017-09-28T18:05:33.299Z,11.13
2017-09-28T18:08:00.954Z,10.70
2017-09-28T18:10:28.677Z,12.47
2017-09-28T18:12:56.333Z,11.20
2017-09-28T18:15:23.988Z,12.10
2017-09-28T18:17:52.541Z,8.43
2017-09-28T18:20:20.965Z,10.53
2017-09-28T18:22:49.582Z,13.03
2017-09-28T18:25:17.287Z,8.57
2017-09-28T18:27:44.938Z,11.33
2017-09-28T18:30:12.586Z,11.57
2017-09-28T18:32:40.333Z,10.33
2017-09-28T18:35:08.945Z,13.47
2017-09-28T18:37:36.591Z,10.03
2017-09-28T18:40:04.367Z,9.17
2017-09-28T18:42:32.008Z,7.87
2017-09-28T18:44:59.656Z,9.97
2017-09-28T18:47:28.237Z,11.37
2017-09-28T18:49:56.704Z,10.40
2017-09-28T18:52:24.349Z,6.27
2017-09-28T18:54:52.072Z,10.40
2017-09-28T19:01:13.571Z,7.27
2017-09-28T19:03:41.215Z,10.17
2017-09-28T19:06:08.864Z,9.13
2017-09-28T19:08:36.579Z,12.40
2017-09-28T19:11:04.221Z,8.80
2017-09-28T19:13:31.855Z,12.13
2017-09-28T19:15:59.729Z,11.17
2017-09-28T19:18:27.363Z,7.77
2017-09-28T19:20:55.011Z,9.80
2017-09-28T19:23:22.744Z,10.67
2017-09-28T19:25:50.404Z,13.20
2017-09-28T19:28:18.022Z,9.87
2017-09-28T19:30:45.771Z,10.17
2017-09-28T19:33:13.434Z,8.47
2017-09-28T19:35:41.094Z,6.80
2017-09-28T19:38:08.810Z,7.43
2017-09-28T19:40:36.474Z,6.63
2017-09-28T19:43:04.126Z,10.37
2017-09-28T19:45:31.844Z,12.87
2017-09-28T19:47:59.495Z,11.47
2017-09-28T19:50:27.145Z,9.37
2017-09-28T19:52:54.850Z,9.50
2017-09-28T19:55:22.502Z,8.47
2017-09-28T19:57:50.152Z,12.77
2017-09-28T20:00:17.859Z,7.90
2017-09-28T20:02:45.512Z,9.70
2017-09-28T20:05:13.155Z,8.57
2017-09-28T20:07:40.851Z,6.27
2017-09-28T20:10:08.496Z,12.73
2017-09-28T20:12:36.156Z,8.03
2017-09-28T20:15:03.893Z,10.23
2017-09-28T20:20:10.756Z,10.60
2017-09-28T20:22:38.431Z,9.70
2017-09-28T20:25:06.116Z,6.70
2017-09-28T20:27:33.852Z,9.13
2017-09-28T20:30:01.491Z,6.93
2017-09-28T20:32:29.133Z,7.27
2017-09-28T20:34:56.888Z,14.77
2017-09-28T20:37:24.566Z,10.53
2017-09-28T20:39:52.293Z,9.07
2017-09-28T20:42:20.026Z,12.07
2017-09-28T20:44:47.749Z,10.97
2017-09-28T20:47:22.219Z,7.27
2017-09-28T20:49:50.220Z,7.63
2017-09-28T20:52:17.910Z,10.50
2017-09-28T20:54:45.629Z,16.77
2017-09-28T20:57:13.291Z,9.73
2017-09-28T20:59:40.954Z,8.13
2017-09-28T21:02:09.570Z,10.67
2017-09-28T21:04:37.587Z,9.93
2017-09-28T21:09:44.218Z,10.45
2017-09-28T21:12:11.889Z,7.40
2017-09-28T21:14:40.371Z,9.30
2017-09-28T21:17:08.093Z,9.63
2017-09-28T21:19:36.714Z,8.63
2017-09-28T21:22:04.361Z,6.40
2017-09-28T21:24:32.082Z,10.53
2017-09-28T21:26:59.734Z,6.63
2017-09-28T21:29:27.401Z,8.20
2017-09-28T21:31:55.116Z,10.30
2017-09-28T21:34:22.779Z,10.27
2017-09-28T21:36:50.442Z,11.43
2017-09-28T21:39:18.146Z,12.63
2017-09-28T21:41:45.954Z,8.67
2017-09-28T21:44:14.483Z,9.50
2017-09-28T21:46:42.184Z,8.93
2017-09-28T21:49:09.832Z,11.80
2017-09-28T21:51:37.477Z,12.20
2017-09-28T21:54:05.201Z,15.47
2017-09-28T21:56:32.856Z,6.57
2017-09-28T21:59:00.508Z,9.77
2017-09-28T22:01:28.215Z,9.00
2017-09-28T22:03:55.864Z,8.37
2017-09-28T22:06:23.495Z,9.40
2017-09-28T22:08:52.042Z,11.43
2017-09-28T22:11:19.690Z,11.73
2017-09-28T22:13:47.352Z,8.83
2017-09-28T22:16:15.081Z,11.57
2017-09-28T22:18:42.727Z,10.57
2017-09-28T22:21:10.397Z,11.43
2017-09-28T22:23:39.006Z,13.07
2017-09-28T22:26:06.693Z,14.27
2017-09-28T22:28:34.410Z,14.50
2017-09-28T22:36:44.099Z,9.07
2017-09-28T22:39:11.747Z,10.80
2017-09-28T22:41:39.399Z,12.97
2017-09-28T22:44:07.132Z,13.07
2017-09-28T22:46:34.781Z,10.07
2017-09-28T22:49:02.435Z,16.00
2017-09-28T22:51:30.153Z,7.20
2017-09-28T22:53:57.800Z,9.83
2017-09-28T22:56:25.468Z,11.10
2017-09-28T22:58:53.204Z,6.97
2017-09-28T23:01:20.861Z,6.13
2017-09-28T23:03:48.510Z,12.83
2017-09-28T23:06:16.218Z,9.53
2017-09-28T23:08:43.865Z,8.87
2017-09-28T23:11:11.533Z,10.50
2017-09-28T23:13:39.247Z,13.83
2017-09-28T23:16:06.895Z,12.20
2017-09-28T23:18:34.548Z,7.97
2017-09-28T23:21:02.262Z,8.67
2017-09-28T23:23:29.913Z,8.27
2017-09-28T23:25:57.561Z,11.10
2017-09-28T23:28:25.270Z,9.40
2017-09-28T23:30:52.912Z,9.47
2017-09-28T23:33:20.563Z,9.90
2017-09-28T23:35:48.296Z,10.77
2017-09-28T23:38:15.941Z,9.03
2017-09-28T23:40:43.588Z,14.53
2017-09-28T23:43:11.305Z,9.47
2017-09-28T23:45:38.956Z,11.27
2017-09-28T23:48:06.623Z,9.30
2017-09-28T23:50:34.352Z,10.90
2017-09-28T23:53:02.004Z,12.83
2017-09-28T23:55:29.656Z,7.63
2017-09-28T23:57:57.367Z,12.40
